Terminal Aerodrome Forecast
Issued by NWS

Home | Current Version | Previous Version | Text Only | Print | Product List | Glossary On
Versions: 1 2 3 4 5 6 7 8 9 10 11 12 13 14
000
FTAK31 PAJN 201727
TAFAPG
TAF
PAPG 201727Z 2018/2118 17004KT P6SM -SHRA SCT010 BKN025 OVC035
      TEMPO 2018/2020 20012G18KT 6SM -SHRA BKN020 OVC035
     FM210700 14005KT P6SM VCSH OVC040
      AMD LTD TO CLD VIS AND WIND 2106/2115=

USA.gov is the U.S. government's official web portal to all federal, state and local government web resources and services.